Aviation Digital Data Service (ADDS)

Output produced by TAFs form (1644 UTC 28 February 2017)
found at http://www.aviationweather.gov/adds/tafs/
 
KSBY 281152Z 2812/0112 16004KT P6SM SCT100 
     FM281400 21006KT P6SM SCT150 
     FM281900 18008KT P6SM BKN120 
     FM010300 18009KT 5SM -SHRA BR OVC040 
     FM010700 20011KT 3SM -SHRA BR OVC005